x

Point Arguello, Ca (ptgc1) Weather Station

10:00pm - Wed 28th Jun 2017 All times are PDT. -7 hours from GMT.

  • Wind
    31mph, 32mph gusts
  • Air Temp 54°f
  • Sea Pressure 1013.4mb
  • Point Arguello, Ca
  • Point Arguello, Ca

More Historic Weather Station data

Upgrade to MSW Pro to gain access to the past 30 days of data for over 8000 Wavebouys and Weather Stations around the globe.

Join Pro

Comparision Forecast

View Surf forecast
   
Wed 06/28 10:00pm 31 32 mph 1013.4mb 54f
9:00pm 32 33 mph 1012.9mb 54f
8:00pm 32 33 mph 1012.6mb 55f
7:00pm 30 31 mph 1012.5mb 55f
6:00pm 28 30 mph 1012.4mb 55f
5:00pm 26 29 mph 1012.7mb 55f
4:00pm 26 28 mph 1013mb 55f
3:00pm 26 29 mph 1013.5mb 55f
2:00pm 29 30 mph 1013.5mb 55f
1:00pm 28 30 mph 1014mb 55f
12:00pm 28 30 mph 1014mb 53f
11:00am 26 28 mph 1014.1mb 54f
10:00am 26 29 mph 1013.7mb 54f
9:00am 30 32 mph 1013.4mb 53f
8:00am 30 31 mph 1013.1mb 53f
7:00am 36 38 mph 1012.7mb 53f
6:00am 32 33 mph 1012.5mb 53f
5:00am 32 34 mph 1012.4mb 53f
4:00am 33 36 mph 1012.5mb 53f
3:00am 29 32 mph 1012.6mb 53f
2:00am 29 32 mph 1012.6mb 54f
1:00am 32 34 mph 1012.8mb 54f
12:00am 32 34 mph 1013.1mb 54f
Tue 06/27 11:00pm 32 33 mph 1013.1mb 55f
10:00pm 32 33 mph 1013.2mb 55f
9:00pm 31 34 mph 1012.7mb 56f
8:00pm 31 33 mph 1012.8mb 56f
7:00pm 29 30 mph 1012.8mb 56f
6:00pm 29 31 mph 1012.8mb 57f
5:00pm 26 29 mph 1013.2mb 57f
4:00pm 28 30 mph 1013.7mb 57f
3:00pm 28 31 mph 1014.1mb 57f
2:00pm 28 30 mph 1014.4mb 57f
1:00pm 24 26 mph 1014.8mb 56f
12:00pm 24 25 mph 1015mb 55f
11:00am 28 30 mph 1014.8mb 55f
10:00am 28 30 mph 1014.7mb 55f
9:00am 26 29 mph 1014.4mb 55f
8:00am 30 32 mph 1014.2mb 54f
7:00am 31 32 mph 1013.9mb 54f
6:00am 30 32 mph 1013.5mb 55f
5:00am 36 37 mph 1013mb 54f
4:00am 31 34 mph 1013.1mb 57f
3:00am 32 37 mph 1013.5mb 58f
2:00am 29 33 mph 1014mb 58f
1:00am 30 33 mph 1014.6mb 59f
12:00am 25 29 mph 1015.2mb 59f
Mon 06/26 11:00pm 25 28 mph 1015.2mb 59f
10:00pm 24 26 mph 1015.3mb 59f
9:00pm 25 28 mph 1014.9mb 60f
8:00pm 25 29 mph 1014.7mb 60f
7:00pm 25 29 mph 1014.7mb 60f
6:00pm 26 30 mph 1014.8mb 60f
5:00pm 26 30 mph 1015.4mb 61f
4:00pm 26 28 mph 1016mb 60f
3:00pm 28 30 mph 1016.2mb 60f
2:00pm 26 28 mph 1016.2mb 60f
1:00pm 26 29 mph 1016.3mb 60f
12:00pm 30 32 mph 1016mb 59f
11:00am 31 34 mph 1016mb 59f
10:00am 30 33 mph 1015.6mb 58f
9:00am 30 34 mph 1015.4mb 58f
8:00am 30 34 mph 1015.1mb 57f
7:00am 29 31 mph 1014.8mb 57f
6:00am 29 32 mph 1014.5mb 56f
5:00am 28 33 mph 1014.4mb 56f
4:00am 29 32 mph 1014.1mb 57f
3:00am 31 36 mph 1014.1mb 57f
2:00am 31 34 mph 1014.3mb 57f
1:00am 32 33 mph 1014.9mb 56f
12:00am 32 36 mph 1015.2mb 57f
Sun 06/25 11:00pm 31 33 mph 1015.1mb 57f
10:00pm 29 32 mph 1015.2mb 57f
9:00pm 28 30 mph 1015mb 57f
8:00pm 28 31 mph 1014.8mb 58f
7:00pm 29 33 mph 1014.6mb 58f
6:00pm 31 36 mph 1014.5mb 58f
5:00pm 31 32 mph 1014.8mb 57f
4:00pm 34 36 mph 1015.1mb 55f
3:00pm 31 32 mph 1015.5mb 55f
2:00pm 30 31 mph 1015.8mb 55f
1:00pm 32 34 mph 1015.4mb 55f
12:00pm 32 34 mph 1015.4mb 54f
11:00am 33 34 mph 1014.9mb 54f
10:00am 31 33 mph 1014.7mb 54f
9:00am 34 37 mph 1014.3mb 53f
8:00am 34 38 mph 1013.9mb 54f
7:00am 34 36 mph 1013.5mb 54f